Time;durP1;ratioP1;P1;durP2;ratioP2;P2;SDS_P1;SDS_P2;PMS_P1;PMS_P2;Temp;Humidity;BMP_temperature;BMP_pressure;BME280_temperature;BME280_humidity;BME280_pressure;Samples;Min_cycle;Max_cycle;Signal;HPM_P1;HPM_P2
2023/09/17 00:02:26;;;;;;;14.70;14.20;;;22.80;99.90;;;;;;5062009;28;20511;-79
2023/09/17 00:04:54;;;;;;;16.10;15.10;;;22.90;99.90;;;;;;5060929;28;20466;-78
2023/09/17 00:07:23;;;;;;;15.87;15.17;;;22.90;99.90;;;;;;5061189;28;20455;-81
2023/09/17 00:09:52;;;;;;;16.00;15.40;;;22.90;99.90;;;;;;5056581;28;20478;-79
2023/09/17 00:12:20;;;;;;;15.60;14.90;;;22.90;99.90;;;;;;5062883;28;20550;-81
2023/09/17 00:14:50;;;;;;;15.67;14.97;;;22.80;99.90;;;;;;5047902;28;20451;-79
2023/09/17 00:17:19;;;;;;;15.40;14.50;;;22.80;99.90;;;;;;5062095;28;20548;-81
2023/09/17 00:19:47;;;;;;;15.70;15.10;;;22.70;99.90;;;;;;5062944;28;21011;-80
2023/09/17 00:22:15;;;;;;;15.50;14.80;;;22.70;99.90;;;;;;5064638;28;20479;-80
2023/09/17 00:24:45;;;;;;;15.87;15.27;;;22.60;99.90;;;;;;5058835;28;21027;-81
2023/09/17 00:27:13;;;;;;;16.03;15.37;;;22.60;99.90;;;;;;5062522;28;20461;-80
2023/09/17 00:29:42;;;;;;;16.03;15.43;;;22.50;99.90;;;;;;5062248;28;20465;-79
2023/09/17 00:32:10;;;;;;;14.53;14.03;;;22.50;99.90;;;;;;5062810;28;20455;-80
2023/09/17 00:34:38;;;;;;;14.67;14.17;;;22.50;99.90;;;;;;5063314;28;20460;-80
2023/09/17 00:37:07;;;;;;;14.30;13.80;;;22.50;99.90;;;;;;5063303;28;20448;-80
2023/09/17 00:39:35;;;;;;;15.57;14.80;;;22.50;99.90;;;;;;5064083;28;20475;-82
2023/09/17 00:42:06;;;;;;;15.30;14.60;;;22.40;99.90;;;;;;5060248;28;20515;-81
2023/09/17 00:44:34;;;;;;;15.20;14.60;;;22.40;99.90;;;;;;5063484;28;20455;-78
2023/09/17 00:47:04;;;;;;;15.93;15.20;;;22.30;99.90;;;;;;5064009;28;20450;-82
2023/09/17 00:49:34;;;;;;;14.90;14.30;;;22.30;99.90;;;;;;5064810;28;20490;-80
2023/09/17 00:52:04;;;;;;;15.70;15.00;;;22.30;99.90;;;;;;5043021;28;20797;-81
2023/09/17 00:54:32;;;;;;;16.13;15.43;;;22.30;99.90;;;;;;5062089;28;20971;-81
2023/09/17 00:57:01;;;;;;;15.37;14.83;;;22.40;99.90;;;;;;5061299;28;20455;-81
2023/09/17 00:59:30;;;;;;;15.23;14.63;;;22.40;99.90;;;;;;5064121;28;20474;-80
2023/09/17 01:01:58;;;;;;;15.73;15.00;;;22.40;1.00;;;;;;5062205;28;20493;-81
2023/09/17 01:04:28;;;;;;;15.50;14.93;;;22.30;1.00;;;;;;5062544;28;20462;-81
2023/09/17 01:06:56;;;;;;;15.53;15.00;;;22.20;99.90;;;;;;5063613;28;20459;-81
2023/09/17 01:09:25;;;;;;;15.97;15.40;;;22.20;99.90;;;;;;5061864;28;20471;-81
2023/09/17 01:11:53;;;;;;;15.60;15.00;;;22.10;1.00;;;;;;5061458;28;20497;-80
2023/09/17 01:14:22;;;;;;;16.00;15.30;;;22.00;1.00;;;;;;5059665;28;20463;-81
2023/09/17 01:16:53;;;;;;;14.70;14.20;;;22.00;1.00;;;;;;5065671;28;21002;-80
2023/09/17 01:19:27;;;;;;;16.23;15.57;;;22.00;1.00;;;;;;5062272;28;20467;-81
2023/09/17 01:22:01;;;;;;;16.13;15.43;;;21.90;1.00;;;;;;5063120;28;20494;-81
2023/09/17 01:24:40;;;;;;;15.70;15.10;;;21.90;1.00;;;;;;5061652;28;21021;-79
2023/09/17 01:27:12;;;;;;;16.20;15.37;;;21.90;1.00;;;;;;5061471;28;20446;-80
2023/09/17 01:29:43;;;;;;;17.40;16.60;;;22.00;1.00;;;;;;5040816;28;21229;-81
2023/09/17 01:32:12;;;;;;;17.17;16.20;;;21.90;1.00;;;;;;5060210;28;20439;-81
2023/09/17 01:34:43;;;;;;;16.30;15.50;;;21.80;1.00;;;;;;5060595;28;21074;-81
2023/09/17 01:37:17;;;;;;;16.07;15.27;;;21.80;1.00;;;;;;5059711;28;20452;-80
2023/09/17 01:39:49;;;;;;;16.47;15.70;;;21.80;1.00;;;;;;5061803;28;20820;-77
2023/09/17 01:42:20;;;;;;;16.47;15.67;;;21.70;1.00;;;;;;5060332;28;20470;-82
2023/09/17 01:44:49;;;;;;;16.40;15.60;;;21.70;1.00;;;;;;5054236;28;20440;-81
2023/09/17 01:47:19;;;;;;;15.60;15.00;;;21.70;1.00;;;;;;5058173;28;20447;-81
2023/09/17 01:49:47;;;;;;;16.47;15.80;;;21.70;1.00;;;;;;5060025;28;20498;-80
2023/09/17 01:52:20;;;;;;;15.50;14.90;;;21.70;1.00;;;;;;5060506;28;20452;-81
2023/09/17 01:54:49;;;;;;;16.30;15.70;;;21.60;1.00;;;;;;5059695;28;20455;-79
2023/09/17 01:57:19;;;;;;;15.93;15.40;;;21.70;1.00;;;;;;5059076;28;20457;-81
2023/09/17 01:59:47;;;;;;;16.60;15.90;;;21.60;1.00;;;;;;5059987;28;20486;-79
2023/09/17 02:02:15;;;;;;;16.87;16.10;;;21.50;1.00;;;;;;5061558;28;20566;-79
2023/09/17 02:04:43;;;;;;;16.40;15.70;;;21.60;1.00;;;;;;5057667;28;20829;-76
2023/09/17 02:07:12;;;;;;;16.13;15.47;;;21.50;1.00;;;;;;5060316;28;20948;-82
2023/09/17 02:09:40;;;;;;;15.97;15.27;;;21.50;1.00;;;;;;5057856;28;21030;-80
2023/09/17 02:12:08;;;;;;;15.60;15.00;;;21.50;1.00;;;;;;5061600;28;20921;-82
2023/09/17 02:14:38;;;;;;;16.40;15.60;;;21.50;1.00;;;;;;5061900;28;20451;-81
2023/09/17 02:17:08;;;;;;;16.40;15.70;;;21.50;1.00;;;;;;5061548;28;20463;-80
2023/09/17 02:19:42;;;;;;;15.50;14.80;;;21.50;1.00;;;;;;5062973;28;20475;-80
2023/09/17 02:22:10;;;;;;;15.90;15.20;;;21.40;1.00;;;;;;5058210;28;20536;-81
2023/09/17 02:24:39;;;;;;;15.67;15.07;;;21.40;1.00;;;;;;5058335;28;20983;-79
2023/09/17 02:27:08;;;;;;;16.40;15.70;;;21.30;1.00;;;;;;5059893;28;20464;-80
2023/09/17 02:29:38;;;;;;;16.40;15.80;;;21.30;5.00;;;;;;5057968;28;20545;-80
2023/09/17 02:32:06;;;;;;;16.20;15.60;;;21.20;18.40;;;;;;5060671;28;20462;-80
2023/09/17 02:34:35;;;;;;;16.53;15.73;;;21.20;80.10;;;;;;5059764;28;20446;-80
2023/09/17 02:37:03;;;;;;;16.80;16.00;;;21.10;64.50;;;;;;5060592;28;20458;-82
2023/09/17 02:39:31;;;;;;;17.03;16.33;;;21.10;99.90;;;;;;5062365;28;20471;-78
2023/09/17 02:41:59;;;;;;;16.57;15.77;;;21.10;99.90;;;;;;5060648;28;20458;-81
2023/09/17 02:44:27;;;;;;;16.00;15.20;;;21.10;99.90;;;;;;5058721;28;20969;-82
2023/09/17 02:46:57;;;;;;;16.27;15.57;;;21.00;99.90;;;;;;5046017;28;20457;-80
2023/09/17 02:49:27;;;;;;;16.37;15.67;;;21.00;99.90;;;;;;5056993;28;20475;-82
2023/09/17 02:51:55;;;;;;;16.03;15.20;;;21.00;99.90;;;;;;5042553;28;20506;-81
2023/09/17 02:54:23;;;;;;;16.60;15.90;;;21.00;99.90;;;;;;5057735;28;20455;-80
2023/09/17 02:56:51;;;;;;;15.87;15.20;;;20.90;99.90;;;;;;5061375;28;20447;-81
2023/09/17 02:59:19;;;;;;;16.20;15.40;;;21.00;99.90;;;;;;5058107;28;20489;-79
2023/09/17 03:01:47;;;;;;;17.30;16.50;;;21.00;99.90;;;;;;5057809;28;20468;-81
2023/09/17 03:04:17;;;;;;;16.70;15.90;;;21.00;99.90;;;;;;5062330;28;20514;-78
2023/09/17 03:06:45;;;;;;;16.10;15.40;;;21.00;99.90;;;;;;5058890;28;20556;-79
2023/09/17 03:09:13;;;;;;;16.33;15.63;;;21.00;99.90;;;;;;5057746;28;20478;-77
2023/09/17 03:11:42;;;;;;;16.70;16.00;;;21.00;99.90;;;;;;5061162;28;20955;-79
2023/09/17 03:14:10;;;;;;;16.40;15.70;;;21.00;99.90;;;;;;5059144;28;20524;-82
2023/09/17 03:16:38;;;;;;;17.50;16.60;;;21.00;99.90;;;;;;5057068;28;20449;-79
2023/09/17 03:19:06;;;;;;;17.00;16.30;;;21.00;99.90;;;;;;5058497;28;20507;-79
2023/09/17 03:21:40;;;;;;;17.50;16.80;;;20.90;99.90;;;;;;5062460;28;20455;-81
2023/09/17 03:24:09;;;;;;;17.43;16.73;;;20.90;99.90;;;;;;5061868;28;20471;-81
2023/09/17 03:26:38;;;;;;;17.80;17.00;;;21.00;1.00;;;;;;5043177;28;20463;-81
2023/09/17 03:29:07;;;;;;;17.00;16.30;;;21.10;1.00;;;;;;5067887;28;20464;-80
2023/09/17 03:31:36;;;;;;;18.37;17.30;;;21.10;1.00;;;;;;5063171;28;20969;-80
2023/09/17 03:34:05;;;;;;;17.60;16.80;;;21.00;99.90;;;;;;5062328;28;20828;-81
2023/09/17 03:36:35;;;;;;;18.73;17.63;;;20.90;1.00;;;;;;5063152;28;20455;-81
2023/09/17 03:39:06;;;;;;;18.37;17.37;;;21.00;1.00;;;;;;5064429;28;20478;-82
2023/09/17 03:41:34;;;;;;;18.07;17.27;;;21.00;1.00;;;;;;5067503;28;20457;-79
2023/09/17 03:44:03;;;;;;;17.73;16.93;;;21.00;1.00;;;;;;5060655;28;20484;-81
2023/09/17 03:46:32;;;;;;;17.33;16.63;;;21.10;1.00;;;;;;5064636;28;20448;-80
2023/09/17 03:49:01;;;;;;;17.57;16.80;;;21.00;99.90;;;;;;5066122;28;20510;-79
2023/09/17 03:51:30;;;;;;;17.90;17.00;;;20.90;1.00;;;;;;5066137;28;20462;-78
2023/09/17 03:53:59;;;;;;;16.90;16.13;;;20.80;1.00;;;;;;5063397;28;21000;-82
2023/09/17 03:56:29;;;;;;;16.70;15.90;;;20.90;1.00;;;;;;5062643;28;20482;-79
2023/09/17 03:58:57;;;;;;;18.13;17.23;;;20.80;1.00;;;;;;5063860;28;20560;-81
2023/09/17 04:01:25;;;;;;;17.03;16.27;;;20.70;1.00;;;;;;5054427;28;20462;-80
2023/09/17 04:03:54;;;;;;;17.30;16.50;;;20.70;1.00;;;;;;5056374;28;20480;-78
2023/09/17 04:06:22;;;;;;;18.93;18.03;;;20.70;1.00;;;;;;5061893;28;20454;-80
2023/09/17 04:08:50;;;;;;;17.37;16.60;;;20.70;1.00;;;;;;5063045;28;20467;-80
2023/09/17 04:11:19;;;;;;;17.10;16.40;;;20.70;1.00;;;;;;5063760;28;21023;-79
2023/09/17 04:13:48;;;;;;;17.10;16.40;;;20.60;1.00;;;;;;5061724;28;20462;-78
2023/09/17 04:16:20;;;;;;;16.90;16.20;;;20.60;1.00;;;;;;5063486;28;20448;-76
2023/09/17 04:18:49;;;;;;;17.27;16.47;;;20.60;1.00;;;;;;5060589;28;20496;-79
2023/09/17 04:21:17;;;;;;;18.30;17.40;;;20.60;1.00;;;;;;5062044;28;20462;-80
2023/09/17 04:23:45;;;;;;;17.90;17.10;;;20.50;1.00;;;;;;5058663;28;20490;-80
2023/09/17 04:26:15;;;;;;;17.37;16.47;;;20.50;1.00;;;;;;5061977;28;20536;-82
2023/09/17 04:28:44;;;;;;;16.77;16.07;;;20.40;1.00;;;;;;5062984;28;20476;-80
2023/09/17 04:31:13;;;;;;;17.67;16.80;;;20.40;1.00;;;;;;5063053;28;20456;-79
2023/09/17 04:33:41;;;;;;;17.63;16.80;;;20.40;1.00;;;;;;5061821;28;20441;-79
2023/09/17 04:36:09;;;;;;;17.67;16.87;;;20.30;1.00;;;;;;5061794;28;20519;-80
2023/09/17 04:38:38;;;;;;;17.57;16.87;;;20.30;1.00;;;;;;5061668;28;20471;-81
2023/09/17 04:41:06;;;;;;;17.70;16.90;;;20.30;1.00;;;;;;5063722;28;20455;-80
2023/09/17 04:43:34;;;;;;;18.33;17.53;;;20.40;53.40;;;;;;5062181;28;20457;-77
2023/09/17 04:46:03;;;;;;;18.23;17.43;;;20.30;33.70;;;;;;5060693;28;20463;-78
2023/09/17 04:48:32;;;;;;;18.37;17.47;;;20.40;1.00;;;;;;5061810;28;20484;-79
2023/09/17 04:51:00;;;;;;;17.40;16.60;;;20.30;99.90;;;;;;5060274;28;20512;-79
2023/09/17 04:53:28;;;;;;;18.37;17.57;;;20.30;59.20;;;;;;5056735;28;20550;-79
2023/09/17 04:55:57;;;;;;;18.80;17.60;;;20.40;1.00;;;;;;5039287;28;21387;-78
2023/09/17 04:58:25;;;;;;;18.87;17.80;;;20.40;99.90;;;;;;5060665;28;20506;-78
2023/09/17 05:00:54;;;;;;;18.80;17.80;;;20.40;50.30;;;;;;5058886;28;20470;-78
2023/09/17 05:03:23;;;;;;;17.87;17.17;;;20.30;1.00;;;;;;5060439;28;20489;-81
2023/09/17 05:05:52;;;;;;;18.03;17.23;;;20.30;99.30;;;;;;5058736;28;20524;-79
2023/09/17 05:08:20;;;;;;;18.17;17.37;;;20.30;99.90;;;;;;5058106;28;21189;-80
2023/09/17 05:10:48;;;;;;;18.70;17.70;;;20.20;1.00;;;;;;5062665;28;20452;-78
2023/09/17 05:13:17;;;;;;;18.57;17.77;;;20.30;99.90;;;;;;5056981;28;20443;-79
2023/09/17 05:15:45;;;;;;;18.83;18.00;;;20.30;99.90;;;;;;5060558;28;20455;-78
2023/09/17 05:18:13;;;;;;;18.53;17.83;;;20.30;99.90;;;;;;5058671;28;20870;-78
2023/09/17 05:20:43;;;;;;;19.67;18.47;;;20.30;53.00;;;;;;5057730;28;20463;-80
2023/09/17 05:23:13;;;;;;;19.73;18.83;;;20.40;46.40;;;;;;5058837;28;20451;-79
2023/09/17 05:25:42;;;;;;;18.90;18.17;;;20.40;48.90;;;;;;5059240;28;20475;-80
2023/09/17 05:28:10;;;;;;;19.10;18.30;;;20.40;1.00;;;;;;5042262;28;20455;-81
2023/09/17 05:30:38;;;;;;;19.80;18.90;;;20.50;1.00;;;;;;5060234;28;20459;-78
2023/09/17 05:33:06;;;;;;;19.70;18.70;;;20.60;1.00;;;;;;5058002;28;20455;-80
2023/09/17 05:35:36;;;;;;;18.93;18.03;;;20.50;1.00;;;;;;5058211;28;20453;-79
2023/09/17 05:38:04;;;;;;;19.30;18.30;;;20.50;73.90;;;;;;5060969;28;20444;-79
2023/09/17 05:40:34;;;;;;;18.87;18.07;;;20.50;27.00;;;;;;5062297;28;20452;-81
2023/09/17 05:43:02;;;;;;;18.90;18.00;;;20.50;99.90;;;;;;5059792;28;20522;-80
2023/09/17 05:45:30;;;;;;;19.20;18.20;;;20.50;97.40;;;;;;5057983;28;20564;-80
2023/09/17 05:47:59;;;;;;;19.60;18.70;;;20.60;99.90;;;;;;5055772;28;20493;-78
2023/09/17 05:50:27;;;;;;;18.43;17.63;;;20.50;99.90;;;;;;5059074;28;20487;-81
2023/09/17 05:52:55;;;;;;;19.73;18.80;;;20.60;99.90;;;;;;5046497;28;20461;-81
2023/09/17 05:55:23;;;;;;;19.07;18.00;;;20.60;99.90;;;;;;5056113;28;20521;-81
2023/09/17 05:57:53;;;;;;;18.43;17.67;;;20.60;99.90;;;;;;5058635;28;20550;-78
2023/09/17 06:00:22;;;;;;;19.30;18.40;;;20.60;99.90;;;;;;5057236;28;20500;-81
2023/09/17 06:02:50;;;;;;;19.60;18.70;;;20.60;23.20;;;;;;5055818;28;20455;-79
2023/09/17 06:05:18;;;;;;;19.23;18.20;;;20.70;99.90;;;;;;5056365;28;20479;-80
2023/09/17 06:07:47;;;;;;;19.07;18.10;;;20.70;99.90;;;;;;5060055;28;20458;-79
2023/09/17 06:10:15;;;;;;;19.33;18.43;;;20.70;99.90;;;;;;5061082;28;20474;-77
2023/09/17 06:12:45;;;;;;;18.80;17.90;;;20.70;99.90;;;;;;5059814;28;20452;-78
2023/09/17 06:15:14;;;;;;;19.50;18.40;;;20.80;99.90;;;;;;5061852;28;20459;-79
2023/09/17 06:17:42;;;;;;;20.23;19.23;;;20.90;99.90;;;;;;5060913;28;20443;-78
2023/09/17 06:20:14;;;;;;;19.43;18.53;;;21.00;99.90;;;;;;5059037;28;20554;-77
2023/09/17 06:22:42;;;;;;;20.10;19.20;;;21.00;1.00;;;;;;5059667;28;20487;-79
2023/09/17 06:25:11;;;;;;;19.83;18.93;;;21.00;99.90;;;;;;5059265;28;20483;-79
2023/09/17 06:27:39;;;;;;;21.23;20.13;;;21.00;99.90;;;;;;5060386;28;20472;-78
2023/09/17 06:30:08;;;;;;;21.03;20.03;;;21.10;57.60;;;;;;5058448;28;20525;-79
2023/09/17 06:32:38;;;;;;;21.17;20.10;;;21.10;1.00;;;;;;5062003;28;20463;-82
2023/09/17 06:35:08;;;;;;;19.70;18.87;;;21.20;1.00;;;;;;5059877;28;20443;-80
2023/09/17 06:37:36;;;;;;;20.20;19.20;;;21.20;1.00;;;;;;5061307;28;20458;-80
2023/09/17 06:40:07;;;;;;;19.30;18.40;;;21.20;1.00;;;;;;5059264;28;21049;-80
2023/09/17 06:42:36;;;;;;;19.30;18.50;;;21.30;99.90;;;;;;5057700;28;20825;-79
2023/09/17 06:45:04;;;;;;;19.50;18.60;;;21.30;99.90;;;;;;5058410;28;20467;-79
2023/09/17 06:47:33;;;;;;;18.40;17.60;;;21.30;99.90;;;;;;5059730;28;20471;-73
2023/09/17 06:50:03;;;;;;;18.33;17.43;;;21.40;99.90;;;;;;5052568;28;21050;-73
2023/09/17 06:52:31;;;;;;;18.30;17.57;;;21.50;99.90;;;;;;5057003;28;20457;-74
2023/09/17 06:54:59;;;;;;;18.70;17.80;;;21.60;56.10;;;;;;5056162;28;20535;-73
2023/09/17 06:57:27;;;;;;;21.27;20.17;;;21.70;21.80;;;;;;5056155;28;20490;-75
2023/09/17 06:59:55;;;;;;;19.10;18.30;;;21.70;29.30;;;;;;5054335;28;20478;-74
2023/09/17 07:02:23;;;;;;;17.90;17.10;;;21.70;1.90;;;;;;5057671;28;20542;-72
2023/09/17 07:04:51;;;;;;;18.70;17.90;;;21.80;1.00;;;;;;5039755;28;20460;-74
2023/09/17 07:07:21;;;;;;;17.73;17.00;;;21.90;1.00;;;;;;5056989;28;21273;-73
2023/09/17 07:09:49;;;;;;;17.77;16.93;;;21.90;1.00;;;;;;5054731;28;20570;-74
2023/09/17 07:12:17;;;;;;;17.10;16.50;;;21.90;1.00;;;;;;5055291;28;20454;-73
2023/09/17 07:14:46;;;;;;;17.47;16.77;;;22.10;1.00;;;;;;5056508;28;20437;-74
2023/09/17 07:17:15;;;;;;;17.00;16.30;;;22.10;1.00;;;;;;5050658;28;20459;-72
2023/09/17 07:19:43;;;;;;;16.93;16.33;;;22.00;1.00;;;;;;5052025;28;20573;-74
2023/09/17 07:22:14;;;;;;;17.73;16.73;;;22.00;1.00;;;;;;5051451;28;22074;-72
2023/09/17 07:24:44;;;;;;;16.77;16.07;;;22.00;1.00;;;;;;5054212;28;20947;-71
2023/09/17 07:27:12;;;;;;;17.00;16.30;;;22.10;1.00;;;;;;5054984;28;20828;-74
2023/09/17 07:29:40;;;;;;;17.13;16.33;;;22.00;1.00;;;;;;5057363;28;20475;-73
2023/09/17 07:32:08;;;;;;;16.67;16.07;;;22.10;1.00;;;;;;5055060;28;20454;-73
2023/09/17 07:34:36;;;;;;;16.67;16.00;;;22.10;1.00;;;;;;5056557;28;20602;-74
2023/09/17 07:37:05;;;;;;;16.83;16.20;;;22.20;1.00;;;;;;5055904;28;20479;-81
2023/09/17 07:39:33;;;;;;;16.83;16.13;;;22.30;1.00;;;;;;5060752;28;20480;-78
2023/09/17 07:42:03;;;;;;;16.67;16.07;;;22.50;1.00;;;;;;5054184;28;20803;-80
2023/09/17 07:44:35;;;;;;;17.00;16.20;;;22.70;1.00;;;;;;5064180;28;20447;-81
2023/09/17 07:47:08;;;;;;;16.73;16.13;;;22.90;1.00;;;;;;5054486;28;20477;-81
2023/09/17 07:49:37;;;;;;;17.90;17.10;;;23.20;99.90;;;;;;5067052;28;20475;-80
2023/09/17 07:52:06;;;;;;;17.03;16.33;;;23.40;99.90;;;;;;5066148;28;20455;-79
2023/09/17 07:54:38;;;;;;;16.77;16.10;;;23.50;99.90;;;;;;5061577;28;21058;-81
2023/09/17 07:57:12;;;;;;;16.90;16.30;;;23.70;99.90;;;;;;5059153;28;20509;-81
2023/09/17 07:59:40;;;;;;;17.33;16.53;;;23.80;99.90;;;;;;5064300;28;20483;-81
2023/09/17 08:02:09;;;;;;;17.13;16.43;;;24.10;99.90;;;;;;5045207;28;20778;-80
2023/09/17 08:04:37;;;;;;;17.30;16.60;;;24.10;99.90;;;;;;5061846;28;20530;-81
2023/09/17 08:07:05;;;;;;;17.20;16.43;;;24.30;99.90;;;;;;5062645;28;20769;-81
2023/09/17 08:09:34;;;;;;;17.17;16.43;;;24.50;99.90;;;;;;5064864;28;20484;-80
2023/09/17 08:12:02;;;;;;;16.67;16.10;;;24.80;99.90;;;;;;5052597;28;20476;-80
2023/09/17 08:14:34;;;;;;;16.13;15.63;;;24.80;99.90;;;;;;5063437;28;21056;-79
2023/09/17 08:17:03;;;;;;;16.63;16.00;;;24.90;99.90;;;;;;5060586;28;20870;-80
2023/09/17 08:19:32;;;;;;;17.47;16.57;;;24.90;99.90;;;;;;5063344;28;20603;-83
2023/09/17 08:22:00;;;;;;;16.83;16.13;;;25.00;99.90;;;;;;5062498;28;20459;-79
2023/09/17 08:24:28;;;;;;;16.77;16.10;;;24.90;99.90;;;;;;5068409;28;20820;-82
2023/09/17 08:26:56;;;;;;;17.57;16.70;;;25.00;99.90;;;;;;5062841;28;20509;-82
2023/09/17 08:29:24;;;;;;;17.10;16.30;;;24.90;99.90;;;;;;5068167;28;20486;-83
2023/09/17 08:31:54;;;;;;;17.10;16.50;;;24.90;99.90;;;;;;5063594;28;20455;-80
2023/09/17 08:34:22;;;;;;;16.30;15.80;;;25.00;99.90;;;;;;5066634;28;20494;-82
2023/09/17 08:36:50;;;;;;;16.80;16.10;;;25.00;99.90;;;;;;5067396;28;20479;-81
2023/09/17 08:39:19;;;;;;;16.43;15.83;;;25.00;99.90;;;;;;5067307;28;20475;-82
2023/09/17 08:41:48;;;;;;;17.13;16.23;;;25.10;99.90;;;;;;5073282;28;20454;-80
2023/09/17 08:44:17;;;;;;;16.53;15.90;;;25.10;99.90;;;;;;5068046;28;20444;-80
2023/09/17 08:46:47;;;;;;;16.50;15.90;;;25.20;99.90;;;;;;5066999;28;20474;-81
2023/09/17 08:49:17;;;;;;;16.77;16.17;;;25.20;99.90;;;;;;5066027;28;20490;-84
2023/09/17 08:51:48;;;;;;;16.10;15.50;;;25.30;99.90;;;;;;5067638;28;20452;-84
2023/09/17 08:54:25;;;;;;;16.67;16.07;;;25.40;99.90;;;;;;5062758;28;20846;-79
2023/09/17 08:56:55;;;;;;;16.23;15.63;;;25.40;99.90;;;;;;5069061;28;20450;-79
2023/09/17 08:59:28;;;;;;;16.60;15.60;;;25.60;99.90;;;;;;5066278;28;20911;-83
2023/09/17 09:02:07;;;;;;;16.50;15.73;;;25.50;99.90;;;;;;5067167;28;20466;-81
2023/09/17 09:04:38;;;;;;;16.17;15.57;;;25.50;99.90;;;;;;5046022;28;20460;-80
2023/09/17 09:07:09;;;;;;;16.27;15.53;;;25.50;99.90;;;;;;5069215;28;20483;-84
2023/09/17 09:09:40;;;;;;;16.23;15.63;;;25.70;99.90;;;;;;5067761;28;20482;-80
2023/09/17 09:12:08;;;;;;;16.10;15.40;;;25.80;99.90;;;;;;5069964;28;20439;-82
2023/09/17 09:14:36;;;;;;;16.60;15.70;;;26.00;99.90;;;;;;5064405;28;20470;-79
2023/09/17 09:17:05;;;;;;;16.27;15.30;;;26.10;99.90;;;;;;5055969;28;20461;-83
2023/09/17 09:19:33;;;;;;;16.50;15.80;;;26.20;99.90;;;;;;5070624;28;20478;-81
2023/09/17 09:22:03;;;;;;;16.03;15.40;;;26.20;99.90;;;;;;5068898;28;20445;-80
2023/09/17 09:24:48;;;;;;;15.40;14.80;;;26.20;99.90;;;;;;5069559;28;20489;-82
2023/09/17 09:27:16;;;;;;;15.30;14.80;;;26.40;99.90;;;;;;5072223;28;20494;-83
2023/09/17 09:29:45;;;;;;;17.20;16.30;;;26.60;99.90;;;;;;5070967;28;20502;-81
2023/09/17 09:32:18;;;;;;;16.43;15.70;;;26.60;99.90;;;;;;5069919;28;20456;-81
2023/09/17 09:34:54;;;;;;;15.67;14.97;;;26.80;99.90;;;;;;5070125;28;20466;-80
2023/09/17 09:37:24;;;;;;;16.27;15.53;;;26.80;99.90;;;;;;5049770;28;20526;-83
2023/09/17 09:40:05;;;;;;;15.77;15.03;;;26.90;99.90;;;;;;5070789;28;20561;-82
2023/09/17 09:42:33;;;;;;;15.00;14.50;;;27.00;99.90;;;;;;5065356;28;20539;-80
2023/09/17 09:45:33;;;;;;;15.63;14.63;;;27.00;99.90;;;;;;5067496;28;21163;-80
2023/09/17 09:48:22;;;;;;;15.33;14.60;;;27.00;99.90;;;;;;4966879;28;20488;-79
2023/09/17 09:50:56;;;;;;;15.37;14.77;;;26.90;99.90;;;;;;5063854;28;20550;-82
2023/09/17 09:53:35;;;;;;;15.70;15.00;;;27.00;99.90;;;;;;5069995;28;20460;-83
2023/09/17 09:56:40;;;;;;;15.60;14.90;;;27.00;99.90;;;;;;5051131;28;20461;-87
2023/09/17 09:59:39;;;;;;;15.97;15.07;;;27.00;99.90;;;;;;5069780;28;20509;-86
2023/09/17 10:02:47;;;;;;;14.03;13.50;;;27.00;99.90;;;;;;4964042;28;20471;-81
2023/09/17 10:05:18;;;;;;;15.17;14.07;;;27.00;99.90;;;;;;5047944;28;20457;-85
2023/09/17 10:11:51;;;;;;;13.70;13.10;;;27.10;99.90;;;;;;4874329;29;20473;-82
2023/09/17 10:14:22;;;;;;;14.30;13.50;;;27.20;99.90;;;;;;4877386;29;20488;-81
2023/09/17 10:16:51;;;;;;;14.43;13.53;;;27.10;99.90;;;;;;4896206;29;20518;-82
2023/09/17 10:19:27;;;;;;;14.80;14.10;;;27.20;99.90;;;;;;4926879;29;20480;-82
2023/09/17 10:22:19;;;;;;;13.90;13.30;;;27.20;99.90;;;;;;4930756;29;20585;-81
2023/09/17 10:25:57;;;;;;;14.37;13.70;;;27.40;99.90;;;;;;4931187;28;20565;-84
2023/09/17 10:31:26;;;;;;;14.37;13.77;;;27.50;99.90;;;;;;4986261;28;20475;-80
2023/09/17 10:34:09;;;;;;;14.50;13.90;;;27.60;99.90;;;;;;4988424;28;20470;-80
2023/09/17 10:36:49;;;;;;;14.43;13.93;;;27.70;99.90;;;;;;4998074;28;20553;-81
2023/09/17 10:39:25;;;;;;;14.80;14.10;;;27.70;99.90;;;;;;4984960;28;20469;-81
2023/09/17 10:41:58;;;;;;;14.80;14.30;;;27.80;99.90;;;;;;4986660;28;20482;-83
2023/09/17 10:44:29;;;;;;;14.73;13.80;;;27.80;99.90;;;;;;4984040;28;20813;-81
2023/09/17 10:47:30;;;;;;;13.57;13.07;;;27.80;99.90;;;;;;4997488;28;20215;-81
2023/09/17 10:53:36;;;;;;;13.37;12.97;;;27.50;99.90;;;;;;4971116;28;20479;-81
2023/09/17 10:56:09;;;;;;;13.40;12.97;;;27.50;99.90;;;;;;4984301;28;20494;-82
2023/09/17 10:58:42;;;;;;;13.83;13.23;;;27.50;99.90;;;;;;5001036;28;20544;-82
2023/09/17 11:01:13;;;;;;;14.10;13.40;;;27.40;99.90;;;;;;4986514;28;20506;-82
2023/09/17 11:03:46;;;;;;;13.67;13.23;;;27.30;99.90;;;;;;4986092;28;20541;-82
2023/09/17 11:06:36;;;;;;;13.50;13.10;;;27.30;99.90;;;;;;4974457;28;20916;-82
2023/09/17 11:09:05;;;;;;;14.10;13.50;;;27.20;99.90;;;;;;4986610;28;20919;-81
2023/09/17 11:11:49;;;;;;;13.50;12.90;;;27.30;99.90;;;;;;4986430;28;20550;-83
2023/09/17 11:14:22;;;;;;;14.03;13.50;;;27.40;99.90;;;;;;4984866;28;20467;-83
2023/09/17 11:16:50;;;;;;;13.30;12.80;;;27.30;99.90;;;;;;4985801;28;20539;-83
2023/09/17 11:19:22;;;;;;;12.60;12.20;;;27.20;99.90;;;;;;4987823;28;20491;-81
2023/09/17 11:22:12;;;;;;;14.17;13.33;;;27.20;99.90;;;;;;4989378;28;20465;-81
2023/09/17 11:24:51;;;;;;;13.30;12.70;;;27.20;99.90;;;;;;4981831;28;20462;-81
2023/09/17 11:27:19;;;;;;;13.97;13.37;;;27.30;99.90;;;;;;4980207;28;20487;-81
2023/09/17 11:29:49;;;;;;;13.80;13.30;;;27.30;99.90;;;;;;4979918;28;20554;-82
2023/09/17 11:32:22;;;;;;;13.53;13.03;;;27.30;99.90;;;;;;4979653;28;21401;-81
2023/09/17 11:34:51;;;;;;;13.83;13.13;;;27.30;99.90;;;;;;4994764;28;20990;-84
2023/09/17 11:37:22;;;;;;;13.17;12.67;;;27.30;99.90;;;;;;4982539;28;20470;-82
2023/09/17 11:39:51;;;;;;;14.17;13.47;;;27.30;99.90;;;;;;4977583;28;21032;-82
2023/09/17 11:42:23;;;;;;;13.53;12.90;;;27.40;99.90;;;;;;4982010;28;20869;-83
2023/09/17 11:44:52;;;;;;;13.67;13.17;;;27.40;99.90;;;;;;4986578;28;20470;-82
2023/09/17 11:47:20;;;;;;;13.10;12.60;;;27.40;99.90;;;;;;4983055;28;20464;-83
2023/09/17 11:49:50;;;;;;;13.90;13.30;;;27.40;99.90;;;;;;4988448;28;20482;-83
2023/09/17 11:52:19;;;;;;;14.30;13.70;;;27.40;99.90;;;;;;4983002;28;21204;-82
2023/09/17 11:54:50;;;;;;;14.50;13.70;;;27.40;99.90;;;;;;4992870;28;20460;-82
2023/09/17 11:57:23;;;;;;;13.40;13.00;;;27.40;99.90;;;;;;4991379;28;20509;-81
2023/09/17 11:59:53;;;;;;;13.80;13.20;;;27.40;99.90;;;;;;4992741;28;20479;-81
2023/09/17 12:02:29;;;;;;;13.00;12.50;;;27.40;99.90;;;;;;4991300;28;20459;-83
2023/09/17 12:09:11;;;;;;;12.37;11.97;;;27.40;99.90;;;;;;4993342;28;20528;-84
2023/09/17 12:12:22;;;;;;;12.17;11.63;;;27.50;99.90;;;;;;4994779;28;20976;-81
2023/09/17 12:23:36;;;;;;;13.40;12.70;;;27.50;99.90;;;;;;4897445;29;20560;-82
2023/09/17 12:26:54;;;;;;;13.50;12.70;;;27.50;99.90;;;;;;4987435;28;20457;-84
2023/09/17 12:29:22;;;;;;;13.83;13.33;;;27.50;99.90;;;;;;4992208;28;20488;-84
2023/09/17 12:31:54;;;;;;;13.17;12.60;;;27.50;99.90;;;;;;4990141;28;20459;-80
2023/09/17 12:41:43;;;;;;;13.07;12.20;;;27.50;99.90;;;;;;4997897;28;20489;-82
2023/09/17 12:44:17;;;;;;;12.47;12.07;;;27.50;99.90;;;;;;4965839;28;20496;-81
2023/09/17 12:46:45;;;;;;;12.87;12.37;;;27.50;99.90;;;;;;4992628;28;20472;-83
2023/09/17 12:56:38;;;;;;;13.73;12.67;;;27.50;99.90;;;;;;4982815;28;20461;-82
2023/09/17 12:59:28;;;;;;;13.17;12.67;;;27.60;99.90;;;;;;4987662;28;20479;-80
2023/09/17 13:01:58;;;;;;;13.33;12.93;;;27.50;99.90;;;;;;4983609;28;20492;-80
2023/09/17 13:04:34;;;;;;;13.67;13.17;;;27.50;99.90;;;;;;4980811;28;20471;-82
2023/09/17 13:07:04;;;;;;;14.53;13.73;;;27.40;99.90;;;;;;4990552;28;20468;-83
2023/09/17 13:09:33;;;;;;;13.93;13.30;;;27.40;99.90;;;;;;4979356;28;20526;-83
2023/09/17 13:12:27;;;;;;;14.13;13.63;;;27.40;99.90;;;;;;4988552;28;20549;-81
2023/09/17 13:15:03;;;;;;;13.63;13.13;;;27.40;99.90;;;;;;4988879;28;20522;-82
2023/09/17 13:17:43;;;;;;;13.93;13.43;;;27.40;99.90;;;;;;4987938;28;20440;-84
2023/09/17 13:20:11;;;;;;;13.50;13.10;;;27.40;99.90;;;;;;4976937;28;20479;-83
2023/09/17 13:22:40;;;;;;;12.63;12.13;;;27.40;99.90;;;;;;4974718;28;20786;-84
2023/09/17 13:25:09;;;;;;;13.43;12.90;;;27.40;99.90;;;;;;4981470;28;20534;-84
2023/09/17 13:27:37;;;;;;;13.10;12.70;;;27.40;99.90;;;;;;5005672;28;20479;-81
2023/09/17 13:30:10;;;;;;;13.00;12.50;;;27.40;99.90;;;;;;4978859;28;20491;-82